Latest Weather Observations for Darwin Airport

IDD60801

Issued at 8:31 pm CST Friday 22 May 2015 (issued every 30 minutes, with the page automatically refreshed every 10 minutes)

About weather observations | Map of weather stations | Latest weather observations for NT | Other Formats
Station Details ID: 014015 Name: DARWIN AIRPORT Lat: -12.42 Lon: 130.89 Height: 30.4 m
Data from the previous 72 hours. | See also: Recent months at Darwin Airport
Date/Time
CST
Temp
°C
App
Temp
°C
Dew
Point
Rel
Hum
%
Delta-T
°C
Wind Press
QNH
hPa
Press
MSL
hPa
Rain
since 9 am
mm
Dir
 
Spd
km/h
Gust
km/h
Spd
kts
Gust
kts
22/08:30pm 26.7 29.5 21.6 73 3.4 W 9 11 5 6 1015.0 - 0.0
22/08:00pm 26.7 30.1 21.6 73 3.4 WSW 6 7 3 4 1014.8 - 0.0
22/07:30pm 27.4 30.9 21.9 72 3.7 NNE 6 9 3 5 1014.3 - 0.0
22/07:00pm 27.9 30.3 21.5 68 4.3 NNE 11 13 6 7 1013.9 - 0.0
22/05:30pm 30.2 32.0 21.2 58 6.0 N 13 17 7 9 1013.2 - 0.0
22/05:00pm 29.9 31.5 22.1 63 5.3 NNW 17 20 9 11 1013.1 - 0.0
22/04:30pm 30.1 31.2 22.3 63 5.3 NNW 20 26 11 14 1013.0 - 0.0
22/04:00pm 29.6 30.0 20.9 59 5.8 N 20 24 11 13 1012.9 - 0.0
22/03:30pm 31.6 29.9 18.1 44 8.7 WNW 24 28 13 15 1013.1 - 0.0
22/03:00pm 32.8 30.4 16.5 37 10.3 E 24 33 13 18 1013.0 1012.8 0.0
22/02:30pm 32.9 30.6 16.6 37 10.3 ENE 24 33 13 18 1013.3 - 0.0
22/02:00pm 32.1 29.6 17.2 41 9.5 E 26 37 14 20 1013.6 - 0.0
22/01:30pm 30.8 29.9 18.2 47 8.1 ESE 20 30 11 16 1014.0 - 0.0
22/01:00pm 32.0 30.9 18.6 45 8.7 E 22 35 12 19 1014.3 - 0.0
22/12:30pm 30.7 29.1 19.2 50 7.5 E 26 37 14 20 1014.7 - 0.0
22/12:00pm 30.1 29.0 18.6 50 7.4 E 22 32 12 17 1015.2 1015.0 0.0
22/11:30am 30.1 29.2 19.9 54 6.7 E 24 32 13 17 1015.8 - 0.0
22/11:00am 30.1 30.3 20.6 56 6.3 E 20 30 11 16 1015.8 - 0.0
22/10:30am 29.0 30.1 21.2 62 5.2 ENE 17 24 9 13 1016.2 - 0.0
22/10:00am 28.6 29.7 21.9 67 4.5 ENE 19 33 10 18 1016.4 - 0.0
22/09:00am 27.5 30.9 23.3 78 2.9 E 11 15 6 8 1016.0 1015.8 0.0
22/08:30am 26.7 30.6 23.6 83 2.1 E 9 13 5 7 1016.0 - 0.0
22/07:30am 23.4 26.8 22.7 96 0.5 E 9 11 5 6 1015.6 - 0.0
22/07:00am 22.6 25.9 21.8 95 0.5 E 7 9 4 5 1015.6 - 0.0
22/06:30am 22.7 26.2 21.9 95 0.5 ESE 6 7 3 4 1015.4 - 0.0
22/06:00am 22.8 26.4 22.0 95 0.5 ESE 6 7 3 4 1015.2 1015.0 0.0
22/05:30am 23.1 26.8 22.2 95 0.6 ESE 6 7 3 4 1015.3 - 0.0
22/05:00am 23.3 26.9 22.4 95 0.6 ESE 7 9 4 5 1015.3 - 0.0
22/04:30am 23.1 26.8 22.2 95 0.6 E 6 9 3 5 1015.4 - 0.0
22/04:00am 23.4 28.4 22.5 95 0.6 CALM 0 0 0 0 1015.3 - 0.0
22/03:30am 23.5 27.4 22.6 95 0.6 E 6 7 3 4 1015.3 - 0.0
22/03:00am 23.2 26.5 22.5 96 0.5 E 9 9 5 5 1015.2 1015.0 0.0
22/02:30am 23.3 26.5 22.4 95 0.6 E 9 9 5 5 1015.1 - 0.0
22/02:00am 23.3 27.0 22.2 93 0.7 ENE 6 9 3 5 1015.0 - 0.0
22/01:30am 23.6 27.4 22.4 93 0.8 E 6 7 3 4 1015.3 - 0.0
22/01:00am 23.7 27.5 22.7 94 0.7 ESE 7 7 4 4 1015.5 - 0.0
22/12:30am 24.0 28.0 22.7 92 0.9 SE 6 7 3 4 1015.6 - 0.0
22/12:00am 23.9 27.5 22.4 91 1.0 ESE 7 7 4 4 1015.7 1015.5 0.0
 
Date/Time
CST
Temp
°C
App
Temp
°C
Dew
Point
Rel
Hum
%
Delta-T
°C
Wind Press
QNH
hPa
Press
MSL
hPa
Rain
since 9 am
mm
Dir
 
Spd
km/h
Gust
km/h
Spd
kts
Gust
kts
21/11:30pm 24.1 27.8 22.5 91 1.1 ESE 7 7 4 4 1015.7 - 0.0
21/11:00pm 24.3 27.4 22.2 88 1.4 ESE 9 9 5 5 1015.5 - 0.0
21/10:30pm 24.5 27.8 21.9 85 1.7 S 7 9 4 5 1015.3 - 0.0
21/10:00pm 25.0 28.9 21.8 82 2.1 SSW 4 7 2 4 1015.3 - 0.0
21/09:30pm 25.8 29.3 22.1 80 2.5 WSW 7 9 4 5 1015.0 - 0.0
21/09:00pm 26.5 29.8 21.9 76 3.1 SSW 7 9 4 5 1014.9 1014.7 0.0
21/08:30pm 27.2 30.1 21.7 72 3.7 SW 9 11 5 6 1014.6 - 0.0
21/08:00pm 27.0 30.0 21.9 73 3.4 W 9 9 5 5 1014.0 - 0.0
21/07:30pm 27.1 29.7 21.9 73 3.5 N 11 15 6 8 1013.5 - 0.0
21/07:00pm 27.6 29.9 22.1 72 3.7 NNE 13 17 7 9 1013.4 - 0.0
21/06:30pm 28.1 30.5 23.0 74 3.5 NNE 15 19 8 10 1013.2 - 0.0
21/06:00pm 29.1 31.4 23.4 71 3.9 NNE 17 22 9 12 1013.1 1012.9 0.0
21/05:30pm 29.9 31.6 23.4 68 4.5 N 20 24 11 13 1012.7 - 0.0
21/05:00pm 30.8 32.9 22.4 61 5.7 N 15 22 8 12 1012.5 - 0.0
21/04:30pm 30.8 32.8 22.3 60 5.8 N 15 20 8 11 1012.5 - 0.0
21/04:00pm 30.7 32.5 23.3 64 5.1 NNW 19 26 10 14 1012.5 - 0.0
21/03:30pm 31.2 33.3 23.1 62 5.6 NNW 17 24 9 13 1012.8 - 0.0
21/03:00pm 30.5 32.5 22.9 64 5.2 NNW 17 24 9 13 1013.1 1012.9 0.0
21/02:30pm 30.6 31.9 22.4 61 5.6 NNW 19 24 10 13 1013.4 - 0.0
21/02:00pm 29.5 29.9 22.4 65 4.8 NNW 24 30 13 16 1013.8 - 0.0
21/01:30pm 29.9 31.2 22.6 65 5.0 NW 20 28 11 15 1014.3 - 0.0
21/01:00pm 30.0 31.5 22.7 65 5.0 NW 19 24 10 13 1014.7 - 0.0
21/12:30pm 31.4 33.2 20.4 52 7.3 SSW 11 15 6 8 1015.1 - 0.0
21/12:00pm 31.0 33.0 21.5 57 6.4 ESE 13 19 7 10 1015.4 1015.2 0.0
21/11:30am 31.7 33.6 21.3 54 7.0 NE 13 17 7 9 1015.8 - 0.0
21/11:00am 30.5 32.4 21.4 58 6.1 NNE 13 19 7 10 1016.1 - 0.0
21/10:30am 30.1 32.7 22.0 62 5.5 E 11 17 6 9 1016.3 - 0.0
21/10:00am 29.7 31.7 22.3 64 5.0 NE 15 20 8 11 1016.5 - 0.0
21/09:30am 28.8 32.3 23.6 73 3.6 ENE 11 15 6 8 1016.6 - 0.0
21/09:00am 28.1 32.1 23.7 77 3.0 ENE 9 11 5 6 1016.4 1016.2 0.0
21/08:30am 26.7 31.1 23.8 84 2.0 NE 7 9 4 5 1016.2 - 0.0
21/08:00am 25.8 29.5 23.3 86 1.7 E 9 11 5 6 1016.2 - 0.0
21/07:30am 24.6 28.2 23.0 91 1.1 E 9 13 5 7 1016.1 - 0.0
21/07:00am 23.8 27.1 22.6 93 0.8 E 9 11 5 6 1015.8 - 0.0
21/06:30am 23.0 27.8 22.1 95 0.6 CALM 0 0 0 0 1015.1 - 0.0
21/06:00am 23.0 27.8 22.2 95 0.5 CALM 0 0 0 0 1014.8 1014.6 0.0
21/05:30am 23.2 28.3 22.6 96 0.4 CALM 0 0 0 0 1014.8 - 0.0
21/05:00am 23.4 27.4 22.7 96 0.5 ESE 6 6 3 3 1014.7 - 0.0
21/04:30am 23.8 27.8 23.1 96 0.5 ESE 7 7 4 4 1014.6 - 0.0
21/04:00am 23.7 27.7 22.8 95 0.6 E 6 7 3 4 1014.5 - 0.0
21/03:30am 24.3 28.4 23.3 94 0.7 ESE 7 9 4 5 1014.7 - 0.0
21/03:00am 24.3 28.4 23.3 94 0.7 SE 7 7 4 4 1014.8 1014.6 0.0
21/02:30am 24.6 28.8 23.4 93 0.8 ESE 7 9 4 5 1014.9 - 0.0
21/02:00am 24.6 29.1 23.6 94 0.7 E 6 7 3 4 1015.0 - 0.0
21/01:30am 24.4 29.0 23.2 93 0.8 SE 4 7 2 4 1015.1 - 0.0
21/01:00am 25.4 29.0 23.8 91 1.1 S 11 13 6 7 1015.1 - 0.0
21/12:30am 25.5 29.6 23.9 91 1.1 S 9 11 5 6 1015.3 - 0.0
21/12:00am 25.8 29.9 23.9 89 1.3 S 9 9 5 5 1015.3 1015.1 0.0
 
Date/Time
CST
Temp
°C
App
Temp
°C
Dew
Point
Rel
Hum
%
Delta-T
°C
Wind Press
QNH
hPa
Press
MSL
hPa
Rain
since 9 am
mm
Dir
 
Spd
km/h
Gust
km/h
Spd
kts
Gust
kts
20/11:30pm 26.0 30.0 23.8 88 1.5 SSW 9 11 5 6 1015.5 - 0.0
20/11:00pm 26.0 30.0 23.7 87 1.6 SSW 9 11 5 6 1015.4 - 0.0
20/10:30pm 26.6 30.3 23.2 81 2.3 SW 9 11 5 6 1015.4 - 0.0
20/10:00pm 26.6 30.1 23.5 83 2.1 SW 11 13 6 7 1015.3 - 0.0
20/09:30pm 26.6 30.9 24.3 87 1.6 WSW 9 11 5 6 1015.2 - 0.0
20/09:00pm 26.7 31.1 24.4 87 1.6 W 9 9 5 5 1015.0 1014.8 0.0
20/08:30pm 26.9 31.2 24.3 86 1.8 WNW 9 11 5 6 1014.7 - 0.0
20/08:00pm 27.0 31.2 24.1 84 2.0 WNW 9 11 5 6 1014.4 - 0.0
20/07:30pm 27.6 31.6 23.8 80 2.6 WNW 9 13 5 7 1013.9 - 0.0
20/07:00pm 27.9 31.7 23.5 77 3.0 NNW 9 11 5 6 1013.5 - 0.0
20/06:30pm 28.1 31.2 23.6 76 3.1 N 13 15 7 8 1013.3 - 0.0
20/06:00pm 28.8 31.4 23.3 72 3.8 N 15 19 8 10 1013.1 1012.9 0.0
20/05:30pm 29.2 31.5 23.5 71 3.9 N 17 20 9 11 1012.8 - 0.0
20/05:00pm 30.2 31.7 22.7 64 5.1 NNW 19 26 10 14 1012.4 - 0.0
20/04:30pm 30.3 31.6 22.4 62 5.4 N 19 24 10 13 1012.3 - 0.0
20/04:00pm 30.5 32.2 22.4 62 5.5 NNW 17 22 9 12 1012.1 - 0.0
20/03:30pm 30.1 31.4 22.3 63 5.3 NNW 19 22 10 12 1012.3 - 0.0
20/03:00pm 30.9 32.5 22.2 59 5.9 NNW 17 26 9 14 1012.4 1012.2 0.0
20/02:30pm 31.4 33.0 22.1 57 6.3 NNW 17 20 9 11 1012.8 - 0.0
20/02:00pm 31.5 33.1 22.1 57 6.4 NNW 17 22 9 12 1013.2 - 0.0
20/01:30pm 30.9 32.1 22.1 59 6.0 NW 19 24 10 13 1013.7 - 0.0
20/01:00pm 30.4 31.6 22.5 62 5.4 WNW 20 24 11 13 1014.1 - 0.0
20/12:30pm 30.9 33.0 20.9 55 6.7 W 11 15 6 8 1014.5 - 0.0
20/12:00pm 31.0 33.2 21.2 56 6.6 WSW 11 15 6 8 1014.9 1014.7 0.0
20/11:30am 30.8 33.2 20.9 55 6.6 NE 9 15 5 8 1015.3 - 0.0
20/11:00am 30.9 32.6 21.0 55 6.6 NE 13 20 7 11 1015.6 - 0.0
20/10:30am 30.2 33.4 21.6 60 5.8 ENE 7 15 4 8 1015.8 - 0.0
20/10:00am 29.3 31.2 21.4 62 5.3 ENE 13 19 7 10 1016.1 - 0.0
20/09:30am 28.6 31.3 21.4 65 4.8 NE 9 15 5 8 1016.0 - 0.0
20/09:00am 28.4 31.0 21.9 68 4.4 E 11 13 6 7 1015.8 1015.6 0.0
20/08:30am 26.9 29.8 21.7 73 3.5 ENE 9 13 5 7 1015.6 - 0.0
20/08:00am 25.3 27.7 22.2 83 2.1 E 13 15 7 8 1015.6 - 0.0
20/07:30am 24.1 27.3 22.3 90 1.2 E 9 11 5 6 1015.2 - 0.0
20/07:00am 23.7 26.4 22.2 91 1.0 E 11 13 6 7 1014.9 - 0.0
20/06:30am 24.3 26.8 22.5 90 1.2 ESE 13 15 7 8 1014.7 - 0.0
20/06:00am 23.8 26.9 22.1 90 1.1 ESE 9 11 5 6 1014.6 1014.4 0.0
20/05:30am 23.9 26.6 22.1 90 1.2 SE 11 11 6 6 1014.4 - 0.0
20/05:00am 22.9 26.0 21.5 92 0.9 SE 7 7 4 4 1014.1 - 0.0
20/04:30am 23.3 26.5 21.6 90 1.1 SSE 7 9 4 5 1014.0 - 0.0
20/04:00am 23.4 26.1 21.4 88 1.3 SSE 9 11 5 6 1014.0 - 0.0
20/03:30am 23.4 26.2 21.6 90 1.2 S 9 9 5 5 1014.0 - 0.0
20/03:00am 24.0 26.9 21.7 87 1.5 S 9 11 5 6 1014.0 1013.8 0.0
20/02:30am 23.3 26.7 21.6 90 1.1 SSE 6 7 3 4 1014.1 - 0.0
20/02:00am 23.5 26.9 21.7 90 1.2 E 6 7 3 4 1014.1 - 0.0
20/01:30am 23.8 27.1 21.8 88 1.3 E 7 7 4 4 1014.2 - 0.0
20/01:00am 24.4 28.0 22.0 86 1.6 SSE 6 7 3 4 1014.4 - 0.0
20/12:30am 25.4 27.8 22.3 83 2.1 SSE 13 15 7 8 1014.2 - 0.0
20/12:00am 25.1 28.1 22.0 83 2.1 SSE 9 13 5 7 1014.2 1014.0 0.0
 
Date/Time
CST
Temp
°C
App
Temp
°C
Dew
Point
Rel
Hum
%
Delta-T
°C
Wind Press
QNH
hPa
Press
MSL
hPa
Rain
since 9 am
mm
Dir
 
Spd
km/h
Gust
km/h
Spd
kts
Gust
kts
19/11:30pm 25.5 28.5 21.9 80 2.4 S 9 11 5 6 1014.3 - 0.0
19/11:00pm 25.2 28.5 21.9 82 2.2 S 7 9 4 5 1014.3 - 0.0
19/10:30pm 26.2 29.2 22.0 77 2.8 S 9 11 5 6 1014.2 - 0.0
19/10:00pm 26.4 29.1 21.4 74 3.3 S 9 11 5 6 1014.1 - 0.0
19/09:30pm 26.3 29.1 20.8 71 3.6 WSW 7 11 4 6 1013.8 - 0.0
19/09:00pm 26.4 28.9 21.1 72 3.5 N 9 11 5 6 1013.4 1013.2 0.0

Other Formats:

Comma delimited format used in spreadsheet applications
http://www.bom.gov.au/fwo/IDD60801/IDD60801.94120.axf

JavaScript Object Notation format (JSON) in row-major order
http://www.bom.gov.au/fwo/IDD60801/IDD60801.94120.json